sensor_id;sensor_type;location;lat;lon;timestamp;temperature;humidity
69382;DHT22;56560;50.692;12.844;2023-05-10T00:02:07;10.90;59.80
69382;DHT22;56560;50.692;12.844;2023-05-10T00:04:32;10.90;59.60
69382;DHT22;56560;50.692;12.844;2023-05-10T00:06:58;10.90;60.00
69382;DHT22;56560;50.692;12.844;2023-05-10T00:09:24;10.80;60.00
69382;DHT22;56560;50.692;12.844;2023-05-10T00:11:50;10.70;60.10
69382;DHT22;56560;50.692;12.844;2023-05-10T00:14:15;10.70;60.40
69382;DHT22;56560;50.692;12.844;2023-05-10T00:16:41;10.70;60.30
69382;DHT22;56560;50.692;12.844;2023-05-10T00:19:07;10.70;60.60
69382;DHT22;56560;50.692;12.844;2023-05-10T00:21:32;10.70;60.70
69382;DHT22;56560;50.692;12.844;2023-05-10T00:23:59;10.70;60.60
69382;DHT22;56560;50.692;12.844;2023-05-10T00:26:25;10.70;60.80
69382;DHT22;56560;50.692;12.844;2023-05-10T00:28:51;10.60;60.70
69382;DHT22;56560;50.692;12.844;2023-05-10T00:31:16;10.60;61.20
69382;DHT22;56560;50.692;12.844;2023-05-10T00:33:42;10.50;61.20
69382;DHT22;56560;50.692;12.844;2023-05-10T00:36:08;10.40;61.50
69382;DHT22;56560;50.692;12.844;2023-05-10T00:38:34;10.40;62.10
69382;DHT22;56560;50.692;12.844;2023-05-10T00:40:59;10.40;62.70
69382;DHT22;56560;50.692;12.844;2023-05-10T00:43:25;10.40;62.00
69382;DHT22;56560;50.692;12.844;2023-05-10T00:45:51;10.40;62.00
69382;DHT22;56560;50.692;12.844;2023-05-10T00:48:16;10.30;61.80
69382;DHT22;56560;50.692;12.844;2023-05-10T00:50:42;10.30;61.60
69382;DHT22;56560;50.692;12.844;2023-05-10T00:53:08;10.40;61.70
69382;DHT22;56560;50.692;12.844;2023-05-10T00:55:34;10.40;61.60
69382;DHT22;56560;50.692;12.844;2023-05-10T00:58:00;10.50;61.40
69382;DHT22;56560;50.692;12.844;2023-05-10T01:00:26;10.50;61.30
69382;DHT22;56560;50.692;12.844;2023-05-10T01:02:53;10.50;61.50
69382;DHT22;56560;50.692;12.844;2023-05-10T01:05:19;10.50;61.40
69382;DHT22;56560;50.692;12.844;2023-05-10T01:07:45;10.50;61.70
69382;DHT22;56560;50.692;12.844;2023-05-10T01:10:10;10.40;62.50
69382;DHT22;56560;50.692;12.844;2023-05-10T01:12:39;10.40;62.00
69382;DHT22;56560;50.692;12.844;2023-05-10T01:15:07;10.30;62.30
69382;DHT22;56560;50.692;12.844;2023-05-10T01:17:35;10.30;62.50
69382;DHT22;56560;50.692;12.844;2023-05-10T01:20:02;10.30;62.30
69382;DHT22;56560;50.692;12.844;2023-05-10T01:33:57;10.00;63.20
69382;DHT22;56560;50.692;12.844;2023-05-10T01:36:48;10.00;63.00
69382;DHT22;56560;50.692;12.844;2023-05-10T01:39:30;10.00;63.30
69382;DHT22;56560;50.692;12.844;2023-05-10T01:42:08;10.00;64.10
69382;DHT22;56560;50.692;12.844;2023-05-10T01:44:43;9.90;63.80
69382;DHT22;56560;50.692;12.844;2023-05-10T01:47:46;9.80;64.40
69382;DHT22;56560;50.692;12.844;2023-05-10T01:50:08;9.80;64.10
69382;DHT22;56560;50.692;12.844;2023-05-10T01:52:41;9.70;64.30
69382;DHT22;56560;50.692;12.844;2023-05-10T01:55:13;9.70;65.10
69382;DHT22;56560;50.692;12.844;2023-05-10T01:57:40;9.60;65.30
69382;DHT22;56560;50.692;12.844;2023-05-10T02:00:08;9.60;65.10
69382;DHT22;56560;50.692;12.844;2023-05-10T02:02:39;9.60;64.80
69382;DHT22;56560;50.692;12.844;2023-05-10T02:05:06;9.70;64.80
69382;DHT22;56560;50.692;12.844;2023-05-10T02:07:35;9.80;64.40
69382;DHT22;56560;50.692;12.844;2023-05-10T02:10:02;9.90;64.40
69382;DHT22;56560;50.692;12.844;2023-05-10T02:12:31;9.90;64.70
69382;DHT22;56560;50.692;12.844;2023-05-10T02:14:59;9.80;64.20
69382;DHT22;56560;50.692;12.844;2023-05-10T02:17:27;9.80;65.40
69382;DHT22;56560;50.692;12.844;2023-05-10T02:19:54;9.80;64.70
69382;DHT22;56560;50.692;12.844;2023-05-10T02:22:21;9.80;65.90
69382;DHT22;56560;50.692;12.844;2023-05-10T02:24:47;9.60;65.80
69382;DHT22;56560;50.692;12.844;2023-05-10T02:27:15;9.50;66.40
69382;DHT22;56560;50.692;12.844;2023-05-10T02:29:41;9.40;67.20
69382;DHT22;56560;50.692;12.844;2023-05-10T02:32:09;9.40;66.10
69382;DHT22;56560;50.692;12.844;2023-05-10T02:34:37;9.70;66.10
69382;DHT22;56560;50.692;12.844;2023-05-10T02:37:04;9.70;65.30
69382;DHT22;56560;50.692;12.844;2023-05-10T02:39:31;9.60;66.20
69382;DHT22;56560;50.692;12.844;2023-05-10T02:41:58;9.50;66.70
69382;DHT22;56560;50.692;12.844;2023-05-10T02:44:27;9.40;66.60
69382;DHT22;56560;50.692;12.844;2023-05-10T02:46:53;9.40;66.70
69382;DHT22;56560;50.692;12.844;2023-05-10T02:49:21;9.40;67.20
69382;DHT22;56560;50.692;12.844;2023-05-10T02:51:50;9.30;67.20
69382;DHT22;56560;50.692;12.844;2023-05-10T02:54:19;9.30;66.80
69382;DHT22;56560;50.692;12.844;2023-05-10T02:56:58;9.40;68.00
69382;DHT22;56560;50.692;12.844;2023-05-10T02:59:28;9.50;66.40
69382;DHT22;56560;50.692;12.844;2023-05-10T03:01:53;9.50;65.90
69382;DHT22;56560;50.692;12.844;2023-05-10T03:04:19;9.50;66.60
69382;DHT22;56560;50.692;12.844;2023-05-10T03:06:45;9.50;67.40
69382;DHT22;56560;50.692;12.844;2023-05-10T03:09:11;9.40;67.20
69382;DHT22;56560;50.692;12.844;2023-05-10T03:11:55;9.50;66.90
69382;DHT22;56560;50.692;12.844;2023-05-10T03:17:10;9.50;67.00
69382;DHT22;56560;50.692;12.844;2023-05-10T03:19:53;9.40;66.70
69382;DHT22;56560;50.692;12.844;2023-05-10T03:22:32;9.50;67.70
69382;DHT22;56560;50.692;12.844;2023-05-10T03:25:00;9.50;66.70
69382;DHT22;56560;50.692;12.844;2023-05-10T03:27:29;9.50;66.40
69382;DHT22;56560;50.692;12.844;2023-05-10T03:29:55;9.50;66.40
69382;DHT22;56560;50.692;12.844;2023-05-10T03:32:22;9.50;66.40
69382;DHT22;56560;50.692;12.844;2023-05-10T03:34:48;9.50;66.20
69382;DHT22;56560;50.692;12.844;2023-05-10T03:37:13;9.60;66.20
69382;DHT22;56560;50.692;12.844;2023-05-10T03:39:39;9.60;66.30
69382;DHT22;56560;50.692;12.844;2023-05-10T03:42:05;9.70;65.90
69382;DHT22;56560;50.692;12.844;2023-05-10T03:44:30;9.70;65.70
69382;DHT22;56560;50.692;12.844;2023-05-10T03:46:58;9.80;65.50
69382;DHT22;56560;50.692;12.844;2023-05-10T03:49:24;9.90;65.40
69382;DHT22;56560;50.692;12.844;2023-05-10T03:51:49;10.00;65.30
69382;DHT22;56560;50.692;12.844;2023-05-10T03:54:15;10.00;64.70
69382;DHT22;56560;50.692;12.844;2023-05-10T03:56:41;10.20;64.80
69382;DHT22;56560;50.692;12.844;2023-05-10T03:59:06;10.20;64.70
69382;DHT22;56560;50.692;12.844;2023-05-10T04:01:33;10.20;64.50
69382;DHT22;56560;50.692;12.844;2023-05-10T04:03:59;10.30;64.00
69382;DHT22;56560;50.692;12.844;2023-05-10T04:06:24;10.30;63.90
69382;DHT22;56560;50.692;12.844;2023-05-10T04:08:50;10.40;63.60
69382;DHT22;56560;50.692;12.844;2023-05-10T04:11:15;10.40;63.60
69382;DHT22;56560;50.692;12.844;2023-05-10T04:13:41;10.50;63.40
69382;DHT22;56560;50.692;12.844;2023-05-10T04:16:08;10.60;63.20
69382;DHT22;56560;50.692;12.844;2023-05-10T04:18:34;10.70;63.50
69382;DHT22;56560;50.692;12.844;2023-05-10T04:21:00;10.70;62.70
69382;DHT22;56560;50.692;12.844;2023-05-10T04:23:26;10.80;62.60
69382;DHT22;56560;50.692;12.844;2023-05-10T04:25:52;10.90;62.30
69382;DHT22;56560;50.692;12.844;2023-05-10T04:28:18;11.00;61.80
69382;DHT22;56560;50.692;12.844;2023-05-10T04:30:44;11.20;61.50
69382;DHT22;56560;50.692;12.844;2023-05-10T04:33:09;11.40;61.60
69382;DHT22;56560;50.692;12.844;2023-05-10T04:35:35;11.50;60.70
69382;DHT22;56560;50.692;12.844;2023-05-10T04:38:01;11.60;59.90
69382;DHT22;56560;50.692;12.844;2023-05-10T04:40:26;11.70;59.90
69382;DHT22;56560;50.692;12.844;2023-05-10T04:42:52;11.90;60.00
69382;DHT22;56560;50.692;12.844;2023-05-10T04:45:18;11.90;59.20
69382;DHT22;56560;50.692;12.844;2023-05-10T04:47:43;11.90;59.00
69382;DHT22;56560;50.692;12.844;2023-05-10T04:50:09;11.90;59.00
69382;DHT22;56560;50.692;12.844;2023-05-10T04:52:35;12.10;58.90
69382;DHT22;56560;50.692;12.844;2023-05-10T04:55:01;12.10;58.80
69382;DHT22;56560;50.692;12.844;2023-05-10T04:57:27;12.20;58.80
69382;DHT22;56560;50.692;12.844;2023-05-10T04:59:53;12.30;58.60
69382;DHT22;56560;50.692;12.844;2023-05-10T05:02:18;12.30;58.50
69382;DHT22;56560;50.692;12.844;2023-05-10T05:04:44;12.40;58.30
69382;DHT22;56560;50.692;12.844;2023-05-10T05:07:09;12.40;58.10
69382;DHT22;56560;50.692;12.844;2023-05-10T05:09:35;12.50;58.10
69382;DHT22;56560;50.692;12.844;2023-05-10T05:12:01;12.90;57.70
69382;DHT22;56560;50.692;12.844;2023-05-10T05:14:27;13.30;57.00
69382;DHT22;56560;50.692;12.844;2023-05-10T05:16:52;13.50;55.50
69382;DHT22;56560;50.692;12.844;2023-05-10T05:19:18;13.80;55.40
69382;DHT22;56560;50.692;12.844;2023-05-10T05:21:44;14.10;54.50
69382;DHT22;56560;50.692;12.844;2023-05-10T05:24:10;14.10;53.80
69382;DHT22;56560;50.692;12.844;2023-05-10T05:26:36;14.00;54.50
69382;DHT22;56560;50.692;12.844;2023-05-10T05:29:02;13.90;54.80
69382;DHT22;56560;50.692;12.844;2023-05-10T05:31:28;14.00;54.10
69382;DHT22;56560;50.692;12.844;2023-05-10T05:33:54;13.70;54.70
69382;DHT22;56560;50.692;12.844;2023-05-10T05:36:20;13.70;54.90
69382;DHT22;56560;50.692;12.844;2023-05-10T05:38:46;13.90;54.90
69382;DHT22;56560;50.692;12.844;2023-05-10T05:41:11;14.00;54.60
69382;DHT22;56560;50.692;12.844;2023-05-10T05:43:37;14.20;54.40
69382;DHT22;56560;50.692;12.844;2023-05-10T05:46:03;14.40;54.10
69382;DHT22;56560;50.692;12.844;2023-05-10T05:48:29;14.50;54.00
69382;DHT22;56560;50.692;12.844;2023-05-10T05:50:56;14.90;53.30
69382;DHT22;56560;50.692;12.844;2023-05-10T05:53:22;14.80;52.90
69382;DHT22;56560;50.692;12.844;2023-05-10T05:55:55;14.80;53.20
69382;DHT22;56560;50.692;12.844;2023-05-10T05:58:22;14.90;53.00
69382;DHT22;56560;50.692;12.844;2023-05-10T06:00:48;15.00;52.60
69382;DHT22;56560;50.692;12.844;2023-05-10T06:03:13;14.80;52.40
69382;DHT22;56560;50.692;12.844;2023-05-10T06:05:39;14.80;53.00
69382;DHT22;56560;50.692;12.844;2023-05-10T06:08:04;14.80;52.90
69382;DHT22;56560;50.692;12.844;2023-05-10T06:10:30;14.90;53.20
69382;DHT22;56560;50.692;12.844;2023-05-10T06:12:56;15.00;53.60
69382;DHT22;56560;50.692;12.844;2023-05-10T06:15:22;15.20;52.90
69382;DHT22;56560;50.692;12.844;2023-05-10T06:17:47;15.20;52.40
69382;DHT22;56560;50.692;12.844;2023-05-10T06:20:15;15.20;52.50
69382;DHT22;56560;50.692;12.844;2023-05-10T06:22:41;15.20;52.40
69382;DHT22;56560;50.692;12.844;2023-05-10T06:25:07;15.10;52.70
69382;DHT22;56560;50.692;12.844;2023-05-10T06:27:33;15.10;52.80
69382;DHT22;56560;50.692;12.844;2023-05-10T06:29:59;14.90;52.90
69382;DHT22;56560;50.692;12.844;2023-05-10T06:32:25;15.00;53.00
69382;DHT22;56560;50.692;12.844;2023-05-10T06:34:51;15.20;53.20
69382;DHT22;56560;50.692;12.844;2023-05-10T06:37:17;15.30;52.40
69382;DHT22;56560;50.692;12.844;2023-05-10T06:39:43;15.60;52.40
69382;DHT22;56560;50.692;12.844;2023-05-10T06:42:08;15.80;51.30
69382;DHT22;56560;50.692;12.844;2023-05-10T06:44:34;15.90;51.20
69382;DHT22;56560;50.692;12.844;2023-05-10T06:47:00;16.00;51.10
69382;DHT22;56560;50.692;12.844;2023-05-10T06:49:25;16.30;50.50
69382;DHT22;56560;50.692;12.844;2023-05-10T06:51:51;16.60;50.40
69382;DHT22;56560;50.692;12.844;2023-05-10T06:54:17;16.80;49.90
69382;DHT22;56560;50.692;12.844;2023-05-10T06:56:43;16.90;49.00
69382;DHT22;56560;50.692;12.844;2023-05-10T06:59:08;16.80;49.50
69382;DHT22;56560;50.692;12.844;2023-05-10T07:01:34;16.60;49.10
69382;DHT22;56560;50.692;12.844;2023-05-10T07:04:00;16.70;50.30
69382;DHT22;56560;50.692;12.844;2023-05-10T07:06:26;16.60;49.80
69382;DHT22;56560;50.692;12.844;2023-05-10T07:08:52;16.60;50.20
69382;DHT22;56560;50.692;12.844;2023-05-10T07:11:18;16.50;50.30
69382;DHT22;56560;50.692;12.844;2023-05-10T07:13:44;16.80;49.90
69382;DHT22;56560;50.692;12.844;2023-05-10T07:16:11;17.00;49.60
69382;DHT22;56560;50.692;12.844;2023-05-10T07:18:37;17.20;49.60
69382;DHT22;56560;50.692;12.844;2023-05-10T07:21:03;17.40;48.50
69382;DHT22;56560;50.692;12.844;2023-05-10T07:23:28;17.40;48.30
69382;DHT22;56560;50.692;12.844;2023-05-10T07:25:55;17.40;48.70
69382;DHT22;56560;50.692;12.844;2023-05-10T07:28:23;17.50;48.80
69382;DHT22;56560;50.692;12.844;2023-05-10T07:30:50;17.40;48.70
69382;DHT22;56560;50.692;12.844;2023-05-10T07:33:15;17.20;49.10
69382;DHT22;56560;50.692;12.844;2023-05-10T07:35:41;17.20;49.50
69382;DHT22;56560;50.692;12.844;2023-05-10T07:38:07;17.10;49.80
69382;DHT22;56560;50.692;12.844;2023-05-10T07:40:33;16.90;50.40
69382;DHT22;56560;50.692;12.844;2023-05-10T07:42:59;16.80;50.60
69382;DHT22;56560;50.692;12.844;2023-05-10T07:45:28;16.70;50.60
69382;DHT22;56560;50.692;12.844;2023-05-10T07:47:54;16.60;50.90
69382;DHT22;56560;50.692;12.844;2023-05-10T07:50:19;16.50;51.10
69382;DHT22;56560;50.692;12.844;2023-05-10T07:52:46;16.40;51.70
69382;DHT22;56560;50.692;12.844;2023-05-10T07:55:12;16.40;51.90
69382;DHT22;56560;50.692;12.844;2023-05-10T07:57:38;16.40;52.00
69382;DHT22;56560;50.692;12.844;2023-05-10T08:00:05;16.50;51.80
69382;DHT22;56560;50.692;12.844;2023-05-10T08:02:30;16.50;51.80
69382;DHT22;56560;50.692;12.844;2023-05-10T08:04:56;16.40;51.80
69382;DHT22;56560;50.692;12.844;2023-05-10T08:07:24;16.40;51.80
69382;DHT22;56560;50.692;12.844;2023-05-10T08:09:49;16.40;52.10
69382;DHT22;56560;50.692;12.844;2023-05-10T08:12:15;16.30;52.30
69382;DHT22;56560;50.692;12.844;2023-05-10T08:14:41;16.50;52.40
69382;DHT22;56560;50.692;12.844;2023-05-10T08:17:06;16.60;51.80
69382;DHT22;56560;50.692;12.844;2023-05-10T08:19:32;16.60;52.40
69382;DHT22;56560;50.692;12.844;2023-05-10T08:21:58;16.60;52.10
69382;DHT22;56560;50.692;12.844;2023-05-10T08:24:23;16.60;52.40
69382;DHT22;56560;50.692;12.844;2023-05-10T08:26:49;16.70;51.70
69382;DHT22;56560;50.692;12.844;2023-05-10T08:29:15;16.60;51.50
69382;DHT22;56560;50.692;12.844;2023-05-10T08:31:40;16.40;52.50
69382;DHT22;56560;50.692;12.844;2023-05-10T08:34:06;16.30;52.70
69382;DHT22;56560;50.692;12.844;2023-05-10T08:36:32;16.20;52.60
69382;DHT22;56560;50.692;12.844;2023-05-10T08:38:58;16.00;53.20
69382;DHT22;56560;50.692;12.844;2023-05-10T08:41:24;16.00;53.50
69382;DHT22;56560;50.692;12.844;2023-05-10T08:43:52;16.00;53.50
69382;DHT22;56560;50.692;12.844;2023-05-10T08:46:19;15.90;54.00
69382;DHT22;56560;50.692;12.844;2023-05-10T08:48:47;15.70;56.00
69382;DHT22;56560;50.692;12.844;2023-05-10T08:51:18;15.50;55.90
69382;DHT22;56560;50.692;12.844;2023-05-10T08:53:45;15.40;58.80
69382;DHT22;56560;50.692;12.844;2023-05-10T08:56:11;15.10;60.60
69382;DHT22;56560;50.692;12.844;2023-05-10T08:58:38;14.90;61.50
69382;DHT22;56560;50.692;12.844;2023-05-10T09:01:05;14.60;63.70
69382;DHT22;56560;50.692;12.844;2023-05-10T09:03:31;14.40;64.80
69382;DHT22;56560;50.692;12.844;2023-05-10T09:05:57;14.50;65.20
69382;DHT22;56560;50.692;12.844;2023-05-10T09:08:23;14.60;65.60
69382;DHT22;56560;50.692;12.844;2023-05-10T09:10:53;14.60;67.40
69382;DHT22;56560;50.692;12.844;2023-05-10T09:13:21;14.70;67.30
69382;DHT22;56560;50.692;12.844;2023-05-10T09:15:47;14.80;67.80
69382;DHT22;56560;50.692;12.844;2023-05-10T09:18:13;14.80;67.00
69382;DHT22;56560;50.692;12.844;2023-05-10T09:20:39;14.90;67.70
69382;DHT22;56560;50.692;12.844;2023-05-10T09:23:05;15.00;67.80
69382;DHT22;56560;50.692;12.844;2023-05-10T09:25:32;15.00;67.10
69382;DHT22;56560;50.692;12.844;2023-05-10T09:28:01;15.00;66.60
69382;DHT22;56560;50.692;12.844;2023-05-10T09:30:27;15.00;66.40
69382;DHT22;56560;50.692;12.844;2023-05-10T09:32:54;15.10;65.80
69382;DHT22;56560;50.692;12.844;2023-05-10T09:35:22;15.20;66.10
69382;DHT22;56560;50.692;12.844;2023-05-10T09:37:53;15.40;65.80
69382;DHT22;56560;50.692;12.844;2023-05-10T09:40:21;15.50;66.30
69382;DHT22;56560;50.692;12.844;2023-05-10T09:45:21;15.70;64.60
69382;DHT22;56560;50.692;12.844;2023-05-10T09:47:47;15.80;64.80
69382;DHT22;56560;50.692;12.844;2023-05-10T09:50:13;15.90;64.60
69382;DHT22;56560;50.692;12.844;2023-05-10T09:52:58;15.90;64.30
69382;DHT22;56560;50.692;12.844;2023-05-10T09:55:45;15.90;63.90
69382;DHT22;56560;50.692;12.844;2023-05-10T09:58:12;15.90;63.90
69382;DHT22;56560;50.692;12.844;2023-05-10T10:00:40;15.80;63.90
69382;DHT22;56560;50.692;12.844;2023-05-10T10:03:14;15.90;63.60
69382;DHT22;56560;50.692;12.844;2023-05-10T10:05:41;16.10;63.40
69382;DHT22;56560;50.692;12.844;2023-05-10T10:08:08;16.40;62.20
69382;DHT22;56560;50.692;12.844;2023-05-10T10:10:34;16.70;61.00
69382;DHT22;56560;50.692;12.844;2023-05-10T10:13:00;16.80;59.80
69382;DHT22;56560;50.692;12.844;2023-05-10T10:15:26;16.90;58.90
69382;DHT22;56560;50.692;12.844;2023-05-10T10:17:53;17.00;58.00
69382;DHT22;56560;50.692;12.844;2023-05-10T10:20:21;17.10;58.30
69382;DHT22;56560;50.692;12.844;2023-05-10T10:22:48;17.20;57.60
69382;DHT22;56560;50.692;12.844;2023-05-10T10:25:15;17.20;57.40
69382;DHT22;56560;50.692;12.844;2023-05-10T10:35:32;16.20;60.80
69382;DHT22;56560;50.692;12.844;2023-05-10T10:37:58;16.10;61.50
69382;DHT22;56560;50.692;12.844;2023-05-10T10:42:53;15.40;64.90
69382;DHT22;56560;50.692;12.844;2023-05-10T10:45:20;15.00;66.40
69382;DHT22;56560;50.692;12.844;2023-05-10T10:47:46;14.70;68.80
69382;DHT22;56560;50.692;12.844;2023-05-10T10:50:12;14.50;69.80
69382;DHT22;56560;50.692;12.844;2023-05-10T10:52:43;14.30;71.70
69382;DHT22;56560;50.692;12.844;2023-05-10T10:55:10;14.20;71.90
69382;DHT22;56560;50.692;12.844;2023-05-10T10:57:53;14.00;73.00
69382;DHT22;56560;50.692;12.844;2023-05-10T11:02:48;14.00;74.50
69382;DHT22;56560;50.692;12.844;2023-05-10T11:08:11;14.30;74.40
69382;DHT22;56560;50.692;12.844;2023-05-10T11:10:37;14.50;74.00
69382;DHT22;56560;50.692;12.844;2023-05-10T11:13:10;14.60;73.30
69382;DHT22;56560;50.692;12.844;2023-05-10T11:15:36;14.70;73.30
69382;DHT22;56560;50.692;12.844;2023-05-10T11:18:23;14.70;73.50
69382;DHT22;56560;50.692;12.844;2023-05-10T11:23:30;14.80;74.30
69382;DHT22;56560;50.692;12.844;2023-05-10T11:25:55;15.00;73.20
69382;DHT22;56560;50.692;12.844;2023-05-10T11:28:21;15.10;72.40
69382;DHT22;56560;50.692;12.844;2023-05-10T11:30:47;15.10;73.00
69382;DHT22;56560;50.692;12.844;2023-05-10T11:33:17;15.20;73.10
69382;DHT22;56560;50.692;12.844;2023-05-10T11:35:43;15.50;72.00
69382;DHT22;56560;50.692;12.844;2023-05-10T11:38:09;15.50;72.70
69382;DHT22;56560;50.692;12.844;2023-05-10T11:40:36;15.60;72.90
69382;DHT22;56560;50.692;12.844;2023-05-10T11:43:02;15.60;71.40
69382;DHT22;56560;50.692;12.844;2023-05-10T11:45:31;15.80;71.40
69382;DHT22;56560;50.692;12.844;2023-05-10T11:47:57;16.00;70.70
69382;DHT22;56560;50.692;12.844;2023-05-10T11:50:23;16.30;70.10
69382;DHT22;56560;50.692;12.844;2023-05-10T11:52:53;16.60;69.20
69382;DHT22;56560;50.692;12.844;2023-05-10T11:55:19;16.80;67.70
69382;DHT22;56560;50.692;12.844;2023-05-10T11:57:45;16.90;67.20
69382;DHT22;56560;50.692;12.844;2023-05-10T12:00:12;17.00;67.60
69382;DHT22;56560;50.692;12.844;2023-05-10T12:02:38;17.00;66.60
69382;DHT22;56560;50.692;12.844;2023-05-10T12:05:05;16.90;67.90
69382;DHT22;56560;50.692;12.844;2023-05-10T12:07:31;16.90;68.10
69382;DHT22;56560;50.692;12.844;2023-05-10T12:10:07;17.10;67.80
69382;DHT22;56560;50.692;12.844;2023-05-10T12:12:41;17.20;66.10
69382;DHT22;56560;50.692;12.844;2023-05-10T12:15:31;17.40;66.70
69382;DHT22;56560;50.692;12.844;2023-05-10T12:17:57;17.60;66.10
69382;DHT22;56560;50.692;12.844;2023-05-10T12:20:24;17.90;65.40
69382;DHT22;56560;50.692;12.844;2023-05-10T12:22:57;18.00;64.70
69382;DHT22;56560;50.692;12.844;2023-05-10T12:25:29;18.00;64.80
69382;DHT22;56560;50.692;12.844;2023-05-10T12:27:57;18.00;64.60
69382;DHT22;56560;50.692;12.844;2023-05-10T12:30:28;17.90;64.20
69382;DHT22;56560;50.692;12.844;2023-05-10T12:33:02;17.90;64.80
69382;DHT22;56560;50.692;12.844;2023-05-10T12:35:32;17.60;65.00
69382;DHT22;56560;50.692;12.844;2023-05-10T12:37:58;17.50;65.60
69382;DHT22;56560;50.692;12.844;2023-05-10T12:40:24;17.60;65.60
69382;DHT22;56560;50.692;12.844;2023-05-10T12:42:50;17.60;66.10
69382;DHT22;56560;50.692;12.844;2023-05-10T12:45:17;17.70;65.90
69382;DHT22;56560;50.692;12.844;2023-05-10T12:47:43;17.80;65.90
69382;DHT22;56560;50.692;12.844;2023-05-10T12:50:08;17.80;64.80
69382;DHT22;56560;50.692;12.844;2023-05-10T12:52:34;17.80;64.30
69382;DHT22;56560;50.692;12.844;2023-05-10T12:55:00;18.00;64.80
69382;DHT22;56560;50.692;12.844;2023-05-10T12:57:26;18.20;64.10
69382;DHT22;56560;50.692;12.844;2023-05-10T12:59:53;18.50;63.70
69382;DHT22;56560;50.692;12.844;2023-05-10T13:02:19;18.80;63.00
69382;DHT22;56560;50.692;12.844;2023-05-10T13:04:45;19.20;61.90
69382;DHT22;56560;50.692;12.844;2023-05-10T13:07:11;19.40;60.80
69382;DHT22;56560;50.692;12.844;2023-05-10T13:09:37;19.60;61.50
69382;DHT22;56560;50.692;12.844;2023-05-10T13:12:03;19.70;60.10
69382;DHT22;56560;50.692;12.844;2023-05-10T13:14:29;19.70;60.20
69382;DHT22;56560;50.692;12.844;2023-05-10T13:16:55;19.70;59.80
69382;DHT22;56560;50.692;12.844;2023-05-10T13:19:21;19.70;60.70
69382;DHT22;56560;50.692;12.844;2023-05-10T13:21:46;19.70;59.20
69382;DHT22;56560;50.692;12.844;2023-05-10T13:24:12;19.40;59.50
69382;DHT22;56560;50.692;12.844;2023-05-10T13:26:42;19.00;61.90
69382;DHT22;56560;50.692;12.844;2023-05-10T13:29:08;18.90;62.60
69382;DHT22;56560;50.692;12.844;2023-05-10T13:31:34;18.90;61.40
69382;DHT22;56560;50.692;12.844;2023-05-10T13:34:01;19.00;61.10
69382;DHT22;56560;50.692;12.844;2023-05-10T13:36:27;18.90;61.00
69382;DHT22;56560;50.692;12.844;2023-05-10T13:38:53;18.90;61.70
69382;DHT22;56560;50.692;12.844;2023-05-10T13:41:18;19.00;61.40
69382;DHT22;56560;50.692;12.844;2023-05-10T13:43:44;19.00;61.50
69382;DHT22;56560;50.692;12.844;2023-05-10T13:46:10;18.90;61.00
69382;DHT22;56560;50.692;12.844;2023-05-10T13:48:35;18.70;61.10
69382;DHT22;56560;50.692;12.844;2023-05-10T13:51:02;18.80;62.40
69382;DHT22;56560;50.692;12.844;2023-05-10T13:53:28;18.70;61.70
69382;DHT22;56560;50.692;12.844;2023-05-10T13:55:54;18.40;62.10
69382;DHT22;56560;50.692;12.844;2023-05-10T13:58:19;18.40;62.30
69382;DHT22;56560;50.692;12.844;2023-05-10T14:00:45;18.50;62.80
69382;DHT22;56560;50.692;12.844;2023-05-10T14:03:10;18.40;62.50
69382;DHT22;56560;50.692;12.844;2023-05-10T14:05:36;18.20;62.00
69382;DHT22;56560;50.692;12.844;2023-05-10T14:08:02;18.20;63.50
69382;DHT22;56560;50.692;12.844;2023-05-10T14:10:28;18.30;63.20
69382;DHT22;56560;50.692;12.844;2023-05-10T14:12:54;18.40;62.80
69382;DHT22;56560;50.692;12.844;2023-05-10T14:15:19;18.50;62.90
69382;DHT22;56560;50.692;12.844;2023-05-10T14:17:45;18.60;62.60
69382;DHT22;56560;50.692;12.844;2023-05-10T14:20:11;18.70;62.30
69382;DHT22;56560;50.692;12.844;2023-05-10T14:22:36;18.70;61.90
69382;DHT22;56560;50.692;12.844;2023-05-10T14:25:02;18.60;62.40
69382;DHT22;56560;50.692;12.844;2023-05-10T14:27:28;18.80;61.10
69382;DHT22;56560;50.692;12.844;2023-05-10T14:29:54;18.90;61.40
69382;DHT22;56560;50.692;12.844;2023-05-10T14:32:19;18.90;61.10
69382;DHT22;56560;50.692;12.844;2023-05-10T14:34:45;18.90;62.00
69382;DHT22;56560;50.692;12.844;2023-05-10T14:37:12;18.80;61.40
69382;DHT22;56560;50.692;12.844;2023-05-10T14:39:38;18.80;62.30
69382;DHT22;56560;50.692;12.844;2023-05-10T14:42:04;19.00;62.30
69382;DHT22;56560;50.692;12.844;2023-05-10T14:44:30;19.10;62.30
69382;DHT22;56560;50.692;12.844;2023-05-10T14:46:55;19.10;61.00
69382;DHT22;56560;50.692;12.844;2023-05-10T14:49:22;19.00;61.90
69382;DHT22;56560;50.692;12.844;2023-05-10T14:51:50;19.00;63.10
69382;DHT22;56560;50.692;12.844;2023-05-10T14:54:15;18.80;63.60
69382;DHT22;56560;50.692;12.844;2023-05-10T14:56:41;18.50;64.20
69382;DHT22;56560;50.692;12.844;2023-05-10T14:59:07;18.10;65.00
69382;DHT22;56560;50.692;12.844;2023-05-10T15:01:33;17.90;66.40
69382;DHT22;56560;50.692;12.844;2023-05-10T15:04:00;17.80;66.40
69382;DHT22;56560;50.692;12.844;2023-05-10T15:06:35;17.70;67.40
69382;DHT22;56560;50.692;12.844;2023-05-10T15:09:02;17.60;68.40
69382;DHT22;56560;50.692;12.844;2023-05-10T15:11:31;17.60;67.30
69382;DHT22;56560;50.692;12.844;2023-05-10T15:13:57;17.60;67.00
69382;DHT22;56560;50.692;12.844;2023-05-10T15:16:23;17.40;68.50
69382;DHT22;56560;50.692;12.844;2023-05-10T15:18:48;17.40;68.30
69382;DHT22;56560;50.692;12.844;2023-05-10T15:21:14;17.40;69.50
69382;DHT22;56560;50.692;12.844;2023-05-10T15:23:43;17.50;69.00
69382;DHT22;56560;50.692;12.844;2023-05-10T15:26:08;17.60;67.60
69382;DHT22;56560;50.692;12.844;2023-05-10T15:28:34;17.50;67.90
69382;DHT22;56560;50.692;12.844;2023-05-10T15:30:59;17.40;67.80
69382;DHT22;56560;50.692;12.844;2023-05-10T15:33:25;17.30;68.80
69382;DHT22;56560;50.692;12.844;2023-05-10T15:35:52;17.20;68.80
69382;DHT22;56560;50.692;12.844;2023-05-10T15:38:19;17.10;69.30
69382;DHT22;56560;50.692;12.844;2023-05-10T15:40:44;17.20;69.20
69382;DHT22;56560;50.692;12.844;2023-05-10T15:43:10;17.20;68.40
69382;DHT22;56560;50.692;12.844;2023-05-10T15:45:36;17.10;68.70
69382;DHT22;56560;50.692;12.844;2023-05-10T15:48:02;17.00;69.70
69382;DHT22;56560;50.692;12.844;2023-05-10T15:50:27;16.90;70.20
69382;DHT22;56560;50.692;12.844;2023-05-10T15:52:53;17.00;70.80